sensor_id;sensor_type;location;lat;lon;timestamp;P1;durP1;ratioP1;P2;durP2;ratioP2
55655;SDS011;41530;52.382;5.270;2023-05-07T00:01:26;5.30;;;4.47;;
55655;SDS011;41530;52.382;5.270;2023-05-07T00:03:53;7.10;;;5.45;;
55655;SDS011;41530;52.382;5.270;2023-05-07T00:06:20;5.45;;;3.92;;
55655;SDS011;41530;52.382;5.270;2023-05-07T00:08:46;7.43;;;5.43;;
55655;SDS011;41530;52.382;5.270;2023-05-07T00:11:13;6.68;;;5.30;;
55655;SDS011;41530;52.382;5.270;2023-05-07T00:13:39;6.93;;;5.25;;
55655;SDS011;41530;52.382;5.270;2023-05-07T00:16:06;9.65;;;6.10;;
55655;SDS011;41530;52.382;5.270;2023-05-07T00:18:33;10.25;;;5.07;;
55655;SDS011;41530;52.382;5.270;2023-05-07T00:20:59;9.35;;;4.78;;
55655;SDS011;41530;52.382;5.270;2023-05-07T00:23:26;7.57;;;4.78;;
55655;SDS011;41530;52.382;5.270;2023-05-07T00:25:52;5.10;;;3.97;;
55655;SDS011;41530;52.382;5.270;2023-05-07T00:28:19;7.10;;;3.92;;
55655;SDS011;41530;52.382;5.270;2023-05-07T00:30:45;8.68;;;5.45;;
55655;SDS011;41530;52.382;5.270;2023-05-07T00:33:12;7.50;;;4.72;;
55655;SDS011;41530;52.382;5.270;2023-05-07T00:35:39;8.82;;;4.63;;
55655;SDS011;41530;52.382;5.270;2023-05-07T00:38:05;6.68;;;4.22;;
55655;SDS011;41530;52.382;5.270;2023-05-07T00:40:32;6.85;;;4.40;;
55655;SDS011;41530;52.382;5.270;2023-05-07T00:42:59;5.57;;;3.95;;
55655;SDS011;41530;52.382;5.270;2023-05-07T00:45:26;4.55;;;3.40;;
55655;SDS011;41530;52.382;5.270;2023-05-07T00:47:59;5.30;;;3.15;;
55655;SDS011;41530;52.382;5.270;2023-05-07T00:50:27;7.15;;;3.63;;
55655;SDS011;41530;52.382;5.270;2023-05-07T00:52:55;3.67;;;2.78;;
55655;SDS011;41530;52.382;5.270;2023-05-07T00:55:22;5.07;;;3.20;;
55655;SDS011;41530;52.382;5.270;2023-05-07T00:57:50;4.22;;;2.83;;
55655;SDS011;41530;52.382;5.270;2023-05-07T01:00:17;4.82;;;1.95;;
55655;SDS011;41530;52.382;5.270;2023-05-07T01:02:44;2.70;;;2.05;;
55655;SDS011;41530;52.382;5.270;2023-05-07T01:05:14;3.65;;;1.70;;
55655;SDS011;41530;52.382;5.270;2023-05-07T01:07:44;1.85;;;1.70;;
55655;SDS011;41530;52.382;5.270;2023-05-07T01:10:11;2.42;;;1.80;;
55655;SDS011;41530;52.382;5.270;2023-05-07T01:12:39;2.17;;;1.40;;
55655;SDS011;41530;52.382;5.270;2023-05-07T01:15:07;3.40;;;1.60;;
55655;SDS011;41530;52.382;5.270;2023-05-07T01:17:35;3.80;;;2.45;;
55655;SDS011;41530;52.382;5.270;2023-05-07T01:20:03;4.72;;;1.75;;
55655;SDS011;41530;52.382;5.270;2023-05-07T01:22:35;3.03;;;1.65;;
55655;SDS011;41530;52.382;5.270;2023-05-07T01:25:03;1.80;;;1.45;;
55655;SDS011;41530;52.382;5.270;2023-05-07T01:27:31;2.08;;;1.52;;
55655;SDS011;41530;52.382;5.270;2023-05-07T01:29:59;2.67;;;2.20;;
55655;SDS011;41530;52.382;5.270;2023-05-07T01:35:10;8.32;;;2.13;;
55655;SDS011;41530;52.382;5.270;2023-05-07T01:37:51;1.85;;;1.73;;
55655;SDS011;41530;52.382;5.270;2023-05-07T01:40:35;4.78;;;2.45;;
55655;SDS011;41530;52.382;5.270;2023-05-07T01:43:25;4.47;;;2.20;;
55655;SDS011;41530;52.382;5.270;2023-05-07T01:46:02;2.35;;;1.67;;
55655;SDS011;41530;52.382;5.270;2023-05-07T01:48:40;3.25;;;1.80;;
55655;SDS011;41530;52.382;5.270;2023-05-07T01:51:22;2.25;;;1.70;;
55655;SDS011;41530;52.382;5.270;2023-05-07T01:53:51;2.88;;;1.23;;
55655;SDS011;41530;52.382;5.270;2023-05-07T01:56:24;1.20;;;1.10;;
55655;SDS011;41530;52.382;5.270;2023-05-07T01:58:56;1.20;;;1.08;;
55655;SDS011;41530;52.382;5.270;2023-05-07T02:01:37;2.65;;;1.17;;
55655;SDS011;41530;52.382;5.270;2023-05-07T02:04:18;3.08;;;1.38;;
55655;SDS011;41530;52.382;5.270;2023-05-07T02:06:55;2.22;;;1.13;;
55655;SDS011;41530;52.382;5.270;2023-05-07T02:09:53;3.03;;;1.33;;
55655;SDS011;41530;52.382;5.270;2023-05-07T02:12:23;1.10;;;0.90;;
55655;SDS011;41530;52.382;5.270;2023-05-07T02:14:51;2.85;;;1.23;;
55655;SDS011;41530;52.382;5.270;2023-05-07T02:17:18;1.13;;;0.90;;
55655;SDS011;41530;52.382;5.270;2023-05-07T02:20:05;2.05;;;1.20;;
55655;SDS011;41530;52.382;5.270;2023-05-07T02:22:56;1.73;;;1.63;;
55655;SDS011;41530;52.382;5.270;2023-05-07T02:25:32;2.25;;;1.70;;
55655;SDS011;41530;52.382;5.270;2023-05-07T02:28:02;2.05;;;1.13;;
55655;SDS011;41530;52.382;5.270;2023-05-07T02:30:58;1.42;;;1.33;;
55655;SDS011;41530;52.382;5.270;2023-05-07T02:33:32;1.70;;;0.90;;
55655;SDS011;41530;52.382;5.270;2023-05-07T02:36:05;1.27;;;1.17;;
55655;SDS011;41530;52.382;5.270;2023-05-07T02:38:58;2.08;;;1.00;;
55655;SDS011;41530;52.382;5.270;2023-05-07T02:41:27;1.00;;;0.90;;
55655;SDS011;41530;52.382;5.270;2023-05-07T02:43:56;1.73;;;1.02;;
55655;SDS011;41530;52.382;5.270;2023-05-07T02:46:25;2.25;;;0.98;;
55655;SDS011;41530;52.382;5.270;2023-05-07T02:49:01;1.10;;;0.80;;
55655;SDS011;41530;52.382;5.270;2023-05-07T02:51:43;2.85;;;1.27;;
55655;SDS011;41530;52.382;5.270;2023-05-07T02:54:13;1.83;;;1.50;;
55655;SDS011;41530;52.382;5.270;2023-05-07T02:56:40;1.83;;;1.25;;
55655;SDS011;41530;52.382;5.270;2023-05-07T02:59:11;1.33;;;1.17;;
55655;SDS011;41530;52.382;5.270;2023-05-07T03:01:43;2.50;;;1.30;;
55655;SDS011;41530;52.382;5.270;2023-05-07T03:04:30;1.98;;;1.40;;
55655;SDS011;41530;52.382;5.270;2023-05-07T03:07:10;3.25;;;1.35;;
55655;SDS011;41530;52.382;5.270;2023-05-07T03:09:52;2.30;;;1.00;;
55655;SDS011;41530;52.382;5.270;2023-05-07T03:12:35;3.00;;;1.13;;
55655;SDS011;41530;52.382;5.270;2023-05-07T03:15:12;1.75;;;1.50;;
55655;SDS011;41530;52.382;5.270;2023-05-07T03:17:53;2.03;;;1.48;;
55655;SDS011;41530;52.382;5.270;2023-05-07T03:20:43;2.25;;;1.17;;
55655;SDS011;41530;52.382;5.270;2023-05-07T03:23:10;1.10;;;0.90;;
55655;SDS011;41530;52.382;5.270;2023-05-07T03:25:38;2.75;;;1.10;;
55655;SDS011;41530;52.382;5.270;2023-05-07T03:28:11;2.08;;;1.45;;
55655;SDS011;41530;52.382;5.270;2023-05-07T03:30:47;3.58;;;1.92;;
55655;SDS011;41530;52.382;5.270;2023-05-07T03:33:18;5.47;;;2.25;;
55655;SDS011;41530;52.382;5.270;2023-05-07T03:36:02;2.67;;;1.75;;
55655;SDS011;41530;52.382;5.270;2023-05-07T03:38:53;1.92;;;1.27;;
55655;SDS011;41530;52.382;5.270;2023-05-07T03:41:25;4.20;;;1.88;;
55655;SDS011;41530;52.382;5.270;2023-05-07T03:43:55;1.70;;;1.40;;
55655;SDS011;41530;52.382;5.270;2023-05-07T03:46:33;1.98;;;1.50;;
55655;SDS011;41530;52.382;5.270;2023-05-07T03:49:04;1.70;;;1.42;;
55655;SDS011;41530;52.382;5.270;2023-05-07T03:51:40;1.90;;;1.17;;
55655;SDS011;41530;52.382;5.270;2023-05-07T03:54:09;1.45;;;1.27;;
55655;SDS011;41530;52.382;5.270;2023-05-07T03:56:47;1.58;;;1.20;;
55655;SDS011;41530;52.382;5.270;2023-05-07T03:59:19;2.17;;;1.30;;
55655;SDS011;41530;52.382;5.270;2023-05-07T04:01:51;1.92;;;1.30;;
55655;SDS011;41530;52.382;5.270;2023-05-07T04:04:22;1.52;;;1.42;;
55655;SDS011;41530;52.382;5.270;2023-05-07T04:06:52;2.00;;;1.60;;
55655;SDS011;41530;52.382;5.270;2023-05-07T04:09:22;2.15;;;1.45;;
55655;SDS011;41530;52.382;5.270;2023-05-07T04:11:56;3.22;;;1.30;;
55655;SDS011;41530;52.382;5.270;2023-05-07T04:14:50;3.30;;;1.58;;
55655;SDS011;41530;52.382;5.270;2023-05-07T04:17:24;3.05;;;1.55;;
55655;SDS011;41530;52.382;5.270;2023-05-07T04:19:56;2.33;;;1.83;;
55655;SDS011;41530;52.382;5.270;2023-05-07T04:22:39;2.42;;;1.98;;
55655;SDS011;41530;52.382;5.270;2023-05-07T04:25:11;3.42;;;2.15;;
55655;SDS011;41530;52.382;5.270;2023-05-07T04:27:40;2.63;;;2.08;;
55655;SDS011;41530;52.382;5.270;2023-05-07T04:30:10;3.05;;;2.10;;
55655;SDS011;41530;52.382;5.270;2023-05-07T04:32:45;1.95;;;1.50;;
55655;SDS011;41530;52.382;5.270;2023-05-07T04:35:49;2.97;;;2.00;;
55655;SDS011;41530;52.382;5.270;2023-05-07T04:38:35;12.70;;;2.55;;
55655;SDS011;41530;52.382;5.270;2023-05-07T04:41:12;4.75;;;2.88;;
55655;SDS011;41530;52.382;5.270;2023-05-07T04:43:41;2.85;;;2.55;;
55655;SDS011;41530;52.382;5.270;2023-05-07T04:46:21;3.78;;;2.50;;
55655;SDS011;41530;52.382;5.270;2023-05-07T04:49:00;5.28;;;2.67;;
55655;SDS011;41530;52.382;5.270;2023-05-07T04:51:27;4.00;;;2.70;;
55655;SDS011;41530;52.382;5.270;2023-05-07T04:54:10;6.25;;;2.60;;
55655;SDS011;41530;52.382;5.270;2023-05-07T04:56:38;3.28;;;2.42;;
55655;SDS011;41530;52.382;5.270;2023-05-07T04:59:08;3.67;;;2.65;;
55655;SDS011;41530;52.382;5.270;2023-05-07T05:01:37;5.28;;;2.75;;
55655;SDS011;41530;52.382;5.270;2023-05-07T05:07:16;4.65;;;3.05;;
55655;SDS011;41530;52.382;5.270;2023-05-07T05:09:45;3.17;;;2.80;;
55655;SDS011;41530;52.382;5.270;2023-05-07T05:12:19;4.47;;;3.40;;
55655;SDS011;41530;52.382;5.270;2023-05-07T05:14:49;4.65;;;2.83;;
55655;SDS011;41530;52.382;5.270;2023-05-07T05:17:41;3.53;;;2.60;;
55655;SDS011;41530;52.382;5.270;2023-05-07T05:20:07;4.03;;;3.10;;
55655;SDS011;41530;52.382;5.270;2023-05-07T05:22:47;4.97;;;2.78;;
55655;SDS011;41530;52.382;5.270;2023-05-07T05:25:19;5.25;;;3.90;;
55655;SDS011;41530;52.382;5.270;2023-05-07T05:27:59;5.10;;;3.67;;
55655;SDS011;41530;52.382;5.270;2023-05-07T05:30:34;7.90;;;4.03;;
55655;SDS011;41530;52.382;5.270;2023-05-07T05:33:05;7.20;;;4.78;;
55655;SDS011;41530;52.382;5.270;2023-05-07T05:35:38;7.22;;;5.38;;
55655;SDS011;41530;52.382;5.270;2023-05-07T05:38:13;7.32;;;4.32;;
55655;SDS011;41530;52.382;5.270;2023-05-07T05:40:59;9.25;;;5.68;;
55655;SDS011;41530;52.382;5.270;2023-05-07T05:43:40;10.57;;;6.45;;
55655;SDS011;41530;52.382;5.270;2023-05-07T05:46:15;8.33;;;6.33;;
55655;SDS011;41530;52.382;5.270;2023-05-07T05:48:44;7.82;;;6.22;;
55655;SDS011;41530;52.382;5.270;2023-05-07T05:51:14;10.77;;;6.43;;
55655;SDS011;41530;52.382;5.270;2023-05-07T05:54:02;8.50;;;6.88;;
55655;SDS011;41530;52.382;5.270;2023-05-07T05:56:36;9.02;;;7.45;;
55655;SDS011;41530;52.382;5.270;2023-05-07T05:59:08;8.27;;;6.63;;
55655;SDS011;41530;52.382;5.270;2023-05-07T06:01:38;8.68;;;6.90;;
55655;SDS011;41530;52.382;5.270;2023-05-07T06:04:33;10.52;;;7.40;;
55655;SDS011;41530;52.382;5.270;2023-05-07T06:07:04;11.50;;;7.68;;
55655;SDS011;41530;52.382;5.270;2023-05-07T06:09:48;9.38;;;7.75;;
55655;SDS011;41530;52.382;5.270;2023-05-07T06:12:31;9.30;;;7.47;;
55655;SDS011;41530;52.382;5.270;2023-05-07T06:15:35;9.80;;;7.55;;
55655;SDS011;41530;52.382;5.270;2023-05-07T06:18:04;5.63;;;5.03;;
55655;SDS011;41530;52.382;5.270;2023-05-07T06:20:44;7.80;;;7.00;;
55655;SDS011;41530;52.382;5.270;2023-05-07T06:23:42;8.13;;;6.88;;
55655;SDS011;41530;52.382;5.270;2023-05-07T06:26:17;7.30;;;6.28;;
55655;SDS011;41530;52.382;5.270;2023-05-07T06:29:00;7.00;;;6.30;;
55655;SDS011;41530;52.382;5.270;2023-05-07T06:31:50;11.93;;;7.82;;
55655;SDS011;41530;52.382;5.270;2023-05-07T06:34:27;10.18;;;8.30;;
55655;SDS011;41530;52.382;5.270;2023-05-07T06:37:26;10.50;;;8.15;;
55655;SDS011;41530;52.382;5.270;2023-05-07T06:40:02;11.02;;;8.80;;
55655;SDS011;41530;52.382;5.270;2023-05-07T06:45:38;7.72;;;6.93;;
55655;SDS011;41530;52.382;5.270;2023-05-07T06:48:33;9.63;;;8.60;;
55655;SDS011;41530;52.382;5.270;2023-05-07T06:51:09;9.27;;;8.27;;
55655;SDS011;41530;52.382;5.270;2023-05-07T06:59:56;14.32;;;7.90;;
55655;SDS011;41530;52.382;5.270;2023-05-07T07:02:39;11.55;;;8.52;;
55655;SDS011;41530;52.382;5.270;2023-05-07T07:05:35;6.45;;;5.55;;
55655;SDS011;41530;52.382;5.270;2023-05-07T07:08:21;5.72;;;5.13;;
55655;SDS011;41530;52.382;5.270;2023-05-07T07:11:20;12.93;;;4.78;;
55655;SDS011;41530;52.382;5.270;2023-05-07T07:13:51;4.80;;;3.70;;
55655;SDS011;41530;52.382;5.270;2023-05-07T07:16:32;3.33;;;3.03;;
55655;SDS011;41530;52.382;5.270;2023-05-07T07:19:02;3.33;;;3.03;;
55655;SDS011;41530;52.382;5.270;2023-05-07T07:21:35;2.95;;;2.45;;
55655;SDS011;41530;52.382;5.270;2023-05-07T07:24:04;4.25;;;2.33;;
55655;SDS011;41530;52.382;5.270;2023-05-07T07:27:02;5.03;;;2.28;;
55655;SDS011;41530;52.382;5.270;2023-05-07T07:29:32;4.80;;;1.60;;
55655;SDS011;41530;52.382;5.270;2023-05-07T07:32:07;2.13;;;1.90;;
55655;SDS011;41530;52.382;5.270;2023-05-07T07:35:00;1.65;;;1.55;;
55655;SDS011;41530;52.382;5.270;2023-05-07T07:37:43;2.92;;;1.70;;
55655;SDS011;41530;52.382;5.270;2023-05-07T07:40:12;1.38;;;1.27;;
55655;SDS011;41530;52.382;5.270;2023-05-07T07:42:53;1.40;;;1.30;;
55655;SDS011;41530;52.382;5.270;2023-05-07T07:45:21;1.40;;;1.30;;
55655;SDS011;41530;52.382;5.270;2023-05-07T07:48:01;1.40;;;1.30;;
55655;SDS011;41530;52.382;5.270;2023-05-07T07:50:54;3.65;;;1.55;;
55655;SDS011;41530;52.382;5.270;2023-05-07T07:53:28;1.13;;;1.02;;
55655;SDS011;41530;52.382;5.270;2023-05-07T07:56:23;1.50;;;1.40;;
55655;SDS011;41530;52.382;5.270;2023-05-07T07:59:13;1.58;;;1.30;;
55655;SDS011;41530;52.382;5.270;2023-05-07T08:01:46;1.40;;;1.30;;
55655;SDS011;41530;52.382;5.270;2023-05-07T08:04:25;1.40;;;1.30;;
55655;SDS011;41530;52.382;5.270;2023-05-07T08:06:52;2.05;;;1.20;;
55655;SDS011;41530;52.382;5.270;2023-05-07T08:09:57;1.65;;;1.30;;
55655;SDS011;41530;52.382;5.270;2023-05-07T08:12:26;1.30;;;1.20;;
55655;SDS011;41530;52.382;5.270;2023-05-07T08:15:19;1.83;;;1.13;;
55655;SDS011;41530;52.382;5.270;2023-05-07T08:18:02;1.00;;;0.90;;
55655;SDS011;41530;52.382;5.270;2023-05-07T08:20:35;1.67;;;1.20;;
55655;SDS011;41530;52.382;5.270;2023-05-07T08:23:15;1.55;;;1.20;;
55655;SDS011;41530;52.382;5.270;2023-05-07T08:25:57;1.88;;;1.30;;
55655;SDS011;41530;52.382;5.270;2023-05-07T08:28:40;1.63;;;1.30;;
55655;SDS011;41530;52.382;5.270;2023-05-07T08:31:11;1.20;;;1.05;;
55655;SDS011;41530;52.382;5.270;2023-05-07T08:33:41;1.40;;;1.15;;
55655;SDS011;41530;52.382;5.270;2023-05-07T08:36:33;1.67;;;1.00;;
55655;SDS011;41530;52.382;5.270;2023-05-07T08:39:11;1.88;;;1.13;;
55655;SDS011;41530;52.382;5.270;2023-05-07T08:41:39;1.92;;;1.10;;
55655;SDS011;41530;52.382;5.270;2023-05-07T08:44:17;1.17;;;1.08;;
55655;SDS011;41530;52.382;5.270;2023-05-07T08:47:03;1.30;;;1.17;;
55655;SDS011;41530;52.382;5.270;2023-05-07T08:49:38;1.90;;;1.10;;
55655;SDS011;41530;52.382;5.270;2023-05-07T08:52:06;1.15;;;1.05;;
55655;SDS011;41530;52.382;5.270;2023-05-07T08:54:49;1.23;;;1.13;;
55655;SDS011;41530;52.382;5.270;2023-05-07T08:57:22;1.33;;;1.00;;
55655;SDS011;41530;52.382;5.270;2023-05-07T09:02:58;1.17;;;1.08;;
55655;SDS011;41530;52.382;5.270;2023-05-07T09:05:42;1.20;;;1.05;;
55655;SDS011;41530;52.382;5.270;2023-05-07T09:08:34;1.02;;;1.02;;
55655;SDS011;41530;52.382;5.270;2023-05-07T09:11:31;1.25;;;1.10;;
55655;SDS011;41530;52.382;5.270;2023-05-07T09:14:21;1.20;;;1.10;;
55655;SDS011;41530;52.382;5.270;2023-05-07T09:17:06;1.10;;;1.00;;
55655;SDS011;41530;52.382;5.270;2023-05-07T09:19:48;1.20;;;1.10;;
55655;SDS011;41530;52.382;5.270;2023-05-07T09:22:26;3.15;;;1.10;;
55655;SDS011;41530;52.382;5.270;2023-05-07T09:24:59;1.10;;;1.00;;
55655;SDS011;41530;52.382;5.270;2023-05-07T09:27:31;1.20;;;1.10;;
55655;SDS011;41530;52.382;5.270;2023-05-07T09:30:16;1.50;;;1.10;;
55655;SDS011;41530;52.382;5.270;2023-05-07T09:32:58;1.23;;;1.13;;
55655;SDS011;41530;52.382;5.270;2023-05-07T09:35:50;1.50;;;1.10;;
55655;SDS011;41530;52.382;5.270;2023-05-07T09:38:42;1.80;;;0.90;;
55655;SDS011;41530;52.382;5.270;2023-05-07T09:41:26;1.38;;;1.20;;
55655;SDS011;41530;52.382;5.270;2023-05-07T09:44:13;2.15;;;0.82;;
55655;SDS011;41530;52.382;5.270;2023-05-07T09:46:59;1.30;;;1.20;;
55655;SDS011;41530;52.382;5.270;2023-05-07T09:49:47;1.10;;;1.00;;
55655;SDS011;41530;52.382;5.270;2023-05-07T09:52:30;1.20;;;1.10;;
55655;SDS011;41530;52.382;5.270;2023-05-07T09:55:18;0.90;;;0.90;;
55655;SDS011;41530;52.382;5.270;2023-05-07T09:58:12;1.00;;;0.98;;
55655;SDS011;41530;52.382;5.270;2023-05-07T10:00:58;1.10;;;1.10;;
55655;SDS011;41530;52.382;5.270;2023-05-07T10:03:59;0.93;;;0.90;;
55655;SDS011;41530;52.382;5.270;2023-05-07T10:06:41;1.33;;;1.23;;
55655;SDS011;41530;52.382;5.270;2023-05-07T10:09:35;1.95;;;1.30;;
55655;SDS011;41530;52.382;5.270;2023-05-07T10:12:28;1.20;;;1.10;;
55655;SDS011;41530;52.382;5.270;2023-05-07T10:15:06;1.30;;;0.90;;
55655;SDS011;41530;52.382;5.270;2023-05-07T10:17:59;1.20;;;1.08;;
55655;SDS011;41530;52.382;5.270;2023-05-07T10:23:36;1.23;;;1.00;;
55655;SDS011;41530;52.382;5.270;2023-05-07T10:26:11;1.00;;;1.00;;
55655;SDS011;41530;52.382;5.270;2023-05-07T10:28:46;1.20;;;1.10;;
55655;SDS011;41530;52.382;5.270;2023-05-07T10:34:40;1.02;;;0.93;;
55655;SDS011;41530;52.382;5.270;2023-05-07T10:37:21;1.33;;;1.17;;
55655;SDS011;41530;52.382;5.270;2023-05-07T10:40:24;0.93;;;0.90;;
55655;SDS011;41530;52.382;5.270;2023-05-07T10:43:01;0.98;;;0.90;;
55655;SDS011;41530;52.382;5.270;2023-05-07T10:45:33;1.23;;;1.10;;
55655;SDS011;41530;52.382;5.270;2023-05-07T10:48:06;1.23;;;1.10;;
55655;SDS011;41530;52.382;5.270;2023-05-07T10:51:18;2.10;;;1.10;;
55655;SDS011;41530;52.382;5.270;2023-05-07T10:53:48;1.75;;;1.05;;
55655;SDS011;41530;52.382;5.270;2023-05-07T10:58:44;0.95;;;0.95;;
55655;SDS011;41530;52.382;5.270;2023-05-07T11:01:11;1.20;;;1.10;;
55655;SDS011;41530;52.382;5.270;2023-05-07T11:06:41;1.67;;;1.30;;
55655;SDS011;41530;52.382;5.270;2023-05-07T11:09:07;1.40;;;1.10;;
55655;SDS011;41530;52.382;5.270;2023-05-07T11:11:44;1.60;;;1.10;;
55655;SDS011;41530;52.382;5.270;2023-05-07T11:14:14;1.42;;;1.00;;
55655;SDS011;41530;52.382;5.270;2023-05-07T11:17:02;1.27;;;1.08;;
55655;SDS011;41530;52.382;5.270;2023-05-07T11:19:48;0.90;;;0.90;;
55655;SDS011;41530;52.382;5.270;2023-05-07T11:24:59;0.80;;;0.80;;
55655;SDS011;41530;52.382;5.270;2023-05-07T11:27:26;1.25;;;1.15;;
55655;SDS011;41530;52.382;5.270;2023-05-07T11:29:53;0.85;;;0.85;;
55655;SDS011;41530;52.382;5.270;2023-05-07T11:32:27;1.45;;;1.20;;
55655;SDS011;41530;52.382;5.270;2023-05-07T11:34:56;1.75;;;1.13;;
55655;SDS011;41530;52.382;5.270;2023-05-07T11:37:24;0.90;;;0.80;;
55655;SDS011;41530;52.382;5.270;2023-05-07T11:40:05;0.90;;;0.90;;
55655;SDS011;41530;52.382;5.270;2023-05-07T11:42:34;1.15;;;0.90;;
55655;SDS011;41530;52.382;5.270;2023-05-07T11:45:04;1.38;;;1.00;;
55655;SDS011;41530;52.382;5.270;2023-05-07T11:47:32;1.38;;;1.00;;
55655;SDS011;41530;52.382;5.270;2023-05-07T11:50:06;0.80;;;0.80;;
55655;SDS011;41530;52.382;5.270;2023-05-07T11:52:34;1.20;;;1.10;;
55655;SDS011;41530;52.382;5.270;2023-05-07T11:55:02;0.95;;;0.95;;
55655;SDS011;41530;52.382;5.270;2023-05-07T11:57:32;0.95;;;0.88;;
55655;SDS011;41530;52.382;5.270;2023-05-07T12:00:00;1.30;;;0.90;;
55655;SDS011;41530;52.382;5.270;2023-05-07T12:02:31;0.95;;;0.80;;
55655;SDS011;41530;52.382;5.270;2023-05-07T12:04:59;1.08;;;1.00;;
55655;SDS011;41530;52.382;5.270;2023-05-07T12:07:26;1.13;;;1.10;;
55655;SDS011;41530;52.382;5.270;2023-05-07T12:09:53;1.13;;;1.02;;
55655;SDS011;41530;52.382;5.270;2023-05-07T12:12:20;1.08;;;0.98;;
55655;SDS011;41530;52.382;5.270;2023-05-07T12:14:46;1.55;;;1.10;;
55655;SDS011;41530;52.382;5.270;2023-05-07T12:17:13;2.72;;;1.00;;
55655;SDS011;41530;52.382;5.270;2023-05-07T12:19:41;0.98;;;0.88;;
55655;SDS011;41530;52.382;5.270;2023-05-07T12:22:11;0.80;;;0.80;;
55655;SDS011;41530;52.382;5.270;2023-05-07T12:24:48;1.00;;;0.90;;
55655;SDS011;41530;52.382;5.270;2023-05-07T12:27:22;0.90;;;0.90;;
55655;SDS011;41530;52.382;5.270;2023-05-07T12:29:49;1.10;;;1.00;;
55655;SDS011;41530;52.382;5.270;2023-05-07T12:32:17;1.08;;;0.80;;
55655;SDS011;41530;52.382;5.270;2023-05-07T12:34:47;0.80;;;0.80;;
55655;SDS011;41530;52.382;5.270;2023-05-07T12:37:16;1.10;;;1.00;;
55655;SDS011;41530;52.382;5.270;2023-05-07T12:40:03;0.77;;;0.70;;
55655;SDS011;41530;52.382;5.270;2023-05-07T12:42:33;1.08;;;0.98;;
55655;SDS011;41530;52.382;5.270;2023-05-07T12:45:12;0.70;;;0.65;;
55655;SDS011;41530;52.382;5.270;2023-05-07T12:47:43;0.80;;;0.80;;
55655;SDS011;41530;52.382;5.270;2023-05-07T12:50:13;0.98;;;0.80;;
55655;SDS011;41530;52.382;5.270;2023-05-07T12:52:42;1.33;;;0.80;;
55655;SDS011;41530;52.382;5.270;2023-05-07T12:55:12;0.93;;;0.93;;
55655;SDS011;41530;52.382;5.270;2023-05-07T12:57:41;0.95;;;0.95;;
55655;SDS011;41530;52.382;5.270;2023-05-07T13:00:11;0.80;;;0.75;;
55655;SDS011;41530;52.382;5.270;2023-05-07T13:02:39;1.15;;;1.02;;
55655;SDS011;41530;52.382;5.270;2023-05-07T13:05:08;0.88;;;0.88;;
55655;SDS011;41530;52.382;5.270;2023-05-07T13:07:35;0.95;;;0.93;;
55655;SDS011;41530;52.382;5.270;2023-05-07T13:10:03;0.95;;;0.95;;
55655;SDS011;41530;52.382;5.270;2023-05-07T13:12:30;2.80;;;1.02;;
55655;SDS011;41530;52.382;5.270;2023-05-07T13:14:57;1.55;;;1.10;;
55655;SDS011;41530;52.382;5.270;2023-05-07T13:17:23;2.15;;;1.10;;
55655;SDS011;41530;52.382;5.270;2023-05-07T13:19:50;2.38;;;1.00;;
55655;SDS011;41530;52.382;5.270;2023-05-07T13:22:17;0.90;;;0.90;;
55655;SDS011;41530;52.382;5.270;2023-05-07T13:24:43;1.40;;;1.02;;
55655;SDS011;41530;52.382;5.270;2023-05-07T13:27:10;0.82;;;0.82;;
55655;SDS011;41530;52.382;5.270;2023-05-07T13:29:36;0.82;;;0.82;;
55655;SDS011;41530;52.382;5.270;2023-05-07T13:32:03;1.27;;;0.88;;
55655;SDS011;41530;52.382;5.270;2023-05-07T13:34:30;0.93;;;0.93;;
55655;SDS011;41530;52.382;5.270;2023-05-07T13:36:56;0.93;;;0.77;;
55655;SDS011;41530;52.382;5.270;2023-05-07T13:39:23;0.80;;;0.80;;
55655;SDS011;41530;52.382;5.270;2023-05-07T13:41:50;0.95;;;0.90;;
55655;SDS011;41530;52.382;5.270;2023-05-07T13:44:16;0.98;;;0.98;;
55655;SDS011;41530;52.382;5.270;2023-05-07T13:46:43;0.90;;;0.90;;
55655;SDS011;41530;52.382;5.270;2023-05-07T13:49:10;0.95;;;0.82;;
55655;SDS011;41530;52.382;5.270;2023-05-07T13:51:37;1.35;;;0.95;;
55655;SDS011;41530;52.382;5.270;2023-05-07T13:54:04;1.40;;;1.00;;
55655;SDS011;41530;52.382;5.270;2023-05-07T13:56:30;1.15;;;0.80;;
55655;SDS011;41530;52.382;5.270;2023-05-07T13:58:58;1.10;;;0.85;;
55655;SDS011;41530;52.382;5.270;2023-05-07T14:01:26;0.70;;;0.70;;
55655;SDS011;41530;52.382;5.270;2023-05-07T14:03:53;1.30;;;0.88;;
55655;SDS011;41530;52.382;5.270;2023-05-07T14:06:20;1.00;;;0.82;;
55655;SDS011;41530;52.382;5.270;2023-05-07T14:08:48;1.00;;;0.90;;
55655;SDS011;41530;52.382;5.270;2023-05-07T14:11:14;2.72;;;0.75;;
55655;SDS011;41530;52.382;5.270;2023-05-07T14:13:41;0.80;;;0.80;;
55655;SDS011;41530;52.382;5.270;2023-05-07T14:16:07;1.73;;;0.75;;
55655;SDS011;41530;52.382;5.270;2023-05-07T14:18:34;1.10;;;0.90;;
55655;SDS011;41530;52.382;5.270;2023-05-07T14:21:04;1.25;;;0.85;;
55655;SDS011;41530;52.382;5.270;2023-05-07T14:23:32;3.42;;;1.10;;
55655;SDS011;41530;52.382;5.270;2023-05-07T14:25:58;1.77;;;0.85;;
55655;SDS011;41530;52.382;5.270;2023-05-07T14:28:25;0.80;;;0.75;;
55655;SDS011;41530;52.382;5.270;2023-05-07T14:30:52;1.10;;;0.80;;
55655;SDS011;41530;52.382;5.270;2023-05-07T14:33:18;0.82;;;0.82;;
55655;SDS011;41530;52.382;5.270;2023-05-07T14:35:45;0.80;;;0.80;;
55655;SDS011;41530;52.382;5.270;2023-05-07T14:38:15;0.75;;;0.70;;
55655;SDS011;41530;52.382;5.270;2023-05-07T14:40:41;0.93;;;0.93;;
55655;SDS011;41530;52.382;5.270;2023-05-07T14:43:08;1.08;;;0.90;;
55655;SDS011;41530;52.382;5.270;2023-05-07T14:45:35;1.55;;;1.10;;
55655;SDS011;41530;52.382;5.270;2023-05-07T14:48:02;3.05;;;1.17;;
55655;SDS011;41530;52.382;5.270;2023-05-07T14:50:29;1.83;;;0.98;;
55655;SDS011;41530;52.382;5.270;2023-05-07T14:52:55;1.45;;;1.00;;
55655;SDS011;41530;52.382;5.270;2023-05-07T14:55:22;1.20;;;1.10;;
55655;SDS011;41530;52.382;5.270;2023-05-07T14:57:48;1.10;;;1.00;;
55655;SDS011;41530;52.382;5.270;2023-05-07T15:00:15;1.67;;;0.98;;
55655;SDS011;41530;52.382;5.270;2023-05-07T15:02:42;2.10;;;0.93;;
55655;SDS011;41530;52.382;5.270;2023-05-07T15:05:09;4.05;;;1.23;;
55655;SDS011;41530;52.382;5.270;2023-05-07T15:07:36;2.85;;;1.17;;
55655;SDS011;41530;52.382;5.270;2023-05-07T15:10:02;1.77;;;1.33;;
55655;SDS011;41530;52.382;5.270;2023-05-07T15:12:29;1.50;;;1.20;;
55655;SDS011;41530;52.382;5.270;2023-05-07T15:14:56;1.65;;;1.20;;
55655;SDS011;41530;52.382;5.270;2023-05-07T15:17:22;4.43;;;1.48;;
55655;SDS011;41530;52.382;5.270;2023-05-07T15:19:49;1.95;;;1.40;;
55655;SDS011;41530;52.382;5.270;2023-05-07T15:22:19;2.63;;;1.50;;
55655;SDS011;41530;52.382;5.270;2023-05-07T15:24:47;1.55;;;1.45;;
55655;SDS011;41530;52.382;5.270;2023-05-07T15:27:14;1.58;;;1.45;;
55655;SDS011;41530;52.382;5.270;2023-05-07T15:29:41;1.50;;;1.20;;
55655;SDS011;41530;52.382;5.270;2023-05-07T15:32:09;2.15;;;1.85;;
55655;SDS011;41530;52.382;5.270;2023-05-07T15:34:36;3.00;;;1.98;;
55655;SDS011;41530;52.382;5.270;2023-05-07T15:37:03;2.03;;;1.67;;
55655;SDS011;41530;52.382;5.270;2023-05-07T15:39:30;1.70;;;1.60;;
55655;SDS011;41530;52.382;5.270;2023-05-07T15:41:57;2.47;;;1.85;;
55655;SDS011;41530;52.382;5.270;2023-05-07T15:44:23;2.03;;;1.80;;
55655;SDS011;41530;52.382;5.270;2023-05-07T15:46:53;1.50;;;1.40;;
55655;SDS011;41530;52.382;5.270;2023-05-07T15:49:20;2.35;;;1.23;;
55655;SDS011;41530;52.382;5.270;2023-05-07T15:51:48;1.98;;;1.20;;
55655;SDS011;41530;52.382;5.270;2023-05-07T15:54:14;1.83;;;1.15;;
55655;SDS011;41530;52.382;5.270;2023-05-07T15:56:43;2.10;;;1.20;;
55655;SDS011;41530;52.382;5.270;2023-05-07T15:59:10;3.78;;;0.98;;
55655;SDS011;41530;52.382;5.270;2023-05-07T16:01:38;2.17;;;0.80;;
55655;SDS011;41530;52.382;5.270;2023-05-07T16:04:06;1.08;;;0.80;;